Time;durP1;ratioP1;P1;durP2;ratioP2;P2;SDS_P1;SDS_P2;PMS_P1;PMS_P2;Temp;Humidity;BMP_temperature;BMP_pressure;BME280_temperature;BME280_humidity;BME280_pressure;Samples;Min_cycle;Max_cycle;Signal;HPM_P1;HPM_P2
2023/01/03 00:02:29;;;;;;;35.2;25.3;;;;;;;5.9;92.9;99410;;;;
2023/01/03 00:12:30;;;;;;;35.2;25.3;;;;;;;5.8;92.9;99410;;;;
2023/01/03 00:23:29;;;;;;;33.1;23.8;;;;;;;5.8;92.9;99410;;;;
2023/01/03 00:33:29;;;;;;;33.1;23.8;;;;;;;5.8;92.9;99420;;;;
2023/01/03 00:43:29;;;;;;;33.1;23.8;;;;;;;5.8;92.9;99420;;;;
2023/01/03 00:54:29;;;;;;;28.3;21.4;;;;;;;5.8;92.9;99430;;;;
2023/01/03 01:05:29;;;;;;;28.3;21.4;;;;;;;5.8;92.8;99440;;;;
2023/01/03 01:15:29;;;;;;;28.3;21.4;;;;;;;5.8;92.5;99450;;;;
2023/01/03 01:25:29;;;;;;;24.5;18.3;;;;;;;5.6;92.1;99450;;;;
2023/01/03 01:36:29;;;;;;;24.5;18.3;;;;;;;5.4;91.7;99440;;;;
2023/01/03 01:46:29;;;;;;;24.5;18.3;;;;;;;5.3;91.5;99450;;;;
2023/01/03 01:56:29;;;;;;;27.2;17.4;;;;;;;5.3;91.3;99440;;;;
2023/01/03 02:06:29;;;;;;;27.2;17.4;;;;;;;5.2;91.3;99440;;;;
2023/01/03 02:17:29;;;;;;;25.2;16.3;;;;;;;5.1;91.1;99440;;;;
2023/01/03 02:27:29;;;;;;;25.2;16.3;;;;;;;5;91.3;99440;;;;
2023/01/03 02:38:29;;;;;;;25.2;16.3;;;;;;;5.1;91.3;99460;;;;
2023/01/03 02:49:29;;;;;;;26.5;17.3;;;;;;;5.1;91.4;99470;;;;
2023/01/03 03:00:29;;;;;;;26.5;17.3;;;;;;;5.2;91.5;99470;;;;
2023/01/03 03:31:29;;;;;;;26.6;15.7;;;;;;;6;92.1;99500;;;;
2023/01/03 03:51:29;;;;;;;21.3;15.1;;;;;;;6.4;91.3;99540;;;;
2023/01/03 04:02:29;;;;;;;21.3;15.1;;;;;;;6.5;90.7;99560;;;;
2023/01/03 04:13:29;;;;;;;21.3;15.1;;;;;;;6.6;90.1;99570;;;;
2023/01/03 04:24:29;;;;;;;25.4;17.1;;;;;;;6.7;89.9;99580;;;;
2023/01/03 04:35:29;;;;;;;25.4;17.1;;;;;;;6.9;89.5;99590;;;;
2023/01/03 04:45:29;;;;;;;25.4;17.1;;;;;;;7.1;89.2;99600;;;;
2023/01/03 04:56:29;;;;;;;16.7;12;;;;;;;7.2;89;99610;;;;
2023/01/03 05:06:29;;;;;;;16.7;12;;;;;;;7.2;88.5;99610;;;;
2023/01/03 05:16:29;;;;;;;16.7;12;;;;;;;7.2;88.6;99610;;;;
2023/01/03 05:27:29;;;;;;;14.1;11.2;;;;;;;7.2;88.6;99630;;;;
2023/01/03 05:37:29;;;;;;;14.1;11.2;;;;;;;7.1;88.7;99640;;;;
2023/01/03 05:48:29;;;;;;;16.7;13;;;;;;;7.1;88.7;99670;;;;
2023/01/03 05:58:29;;;;;;;16.7;13;;;;;;;7.1;88.8;99680;;;;
2023/01/03 06:09:29;;;;;;;16.7;13;;;;;;;7.1;88.9;99690;;;;
2023/01/03 06:20:29;;;;;;;21.9;14.5;;;;;;;7.1;89;99700;;;;
2023/01/03 06:30:29;;;;;;;21.9;14.5;;;;;;;7;89.1;99710;;;;
2023/01/03 06:40:31;;;;;;;21.9;14.5;;;;;;;6.9;88.9;99730;;;;
2023/01/03 07:00:29;;;;;;;19.6;15.9;;;;;;;6.7;88.9;99780;;;;
2023/01/03 07:11:29;;;;;;;19.6;15.9;;;;;;;6.9;89.9;99790;;;;
2023/01/03 07:21:29;;;;;;;23.6;18.3;;;;;;;6.9;89.5;99790;;;;
2023/01/03 07:31:31;;;;;;;23.6;18.3;;;;;;;6.8;89.2;99800;;;;
2023/01/03 07:51:29;;;;;;;23.1;16.8;;;;;;;6.9;89.3;99820;;;;
2023/01/03 08:02:29;;;;;;;23.1;16.8;;;;;;;7.1;89.2;99830;;;;
2023/01/03 08:13:27;;;;;;;23.1;16.8;;;;;;;7.1;88.9;99850;;;;
2023/01/03 08:22:29;;;;;;;20.1;17.2;;;;;;;7;88.8;99860;;;;
2023/01/03 08:32:29;;;;;;;20.1;17.2;;;;;;;7;88.9;99870;;;;
2023/01/03 08:42:29;;;;;;;20.1;17.2;;;;;;;7.1;89;99870;;;;
2023/01/03 08:52:29;;;;;;;30.2;20.9;;;;;;;7.2;89;99880;;;;
2023/01/03 09:02:29;;;;;;;30.2;20.9;;;;;;;7.4;89;99870;;;;
2023/01/03 09:12:29;;;;;;;30.2;20.9;;;;;;;7.9;88.7;99880;;;;
2023/01/03 09:22:29;;;;;;;28.7;21.1;;;;;;;8.3;87.3;99890;;;;
2023/01/03 09:32:29;;;;;;;28.7;21.1;;;;;;;8.5;86.3;99880;;;;
2023/01/03 09:43:29;;;;;;;28.7;21.1;;;;;;;9;85.5;99890;;;;
2023/01/03 10:04:29;;;;;;;26.6;18.4;;;;;;;9.4;83.2;99870;;;;
2023/01/03 10:14:29;;;;;;;26.6;18.4;;;;;;;9.3;83.4;99880;;;;
2023/01/03 10:24:29;;;;;;;20.5;16.1;;;;;;;9.7;82.2;99880;;;;
2023/01/03 10:35:29;;;;;;;20.5;16.1;;;;;;;10;81.3;99870;;;;
2023/01/03 10:45:33;;;;;;;20.5;16.1;;;;;;;10.2;79.4;99870;;;;
2023/01/03 10:56:29;;;;;;;17;13.9;;;;;;;10.3;78.4;99870;;;;
2023/01/03 11:06:29;;;;;;;17;13.9;;;;;;;10.6;78.5;99870;;;;
2023/01/03 11:17:29;;;;;;;13.1;10.9;;;;;;;10.4;77.6;99870;;;;
2023/01/03 11:27:29;;;;;;;13.1;10.9;;;;;;;10.3;77.9;99860;;;;
2023/01/03 11:38:29;;;;;;;13.1;10.9;;;;;;;10.2;78.3;99860;;;;
2023/01/03 11:49:29;;;;;;;16.1;12.2;;;;;;;10.2;78.2;99840;;;;
2023/01/03 11:59:29;;;;;;;16.1;12.2;;;;;;;9.8;78.5;99850;;;;
2023/01/03 12:10:29;;;;;;;16.1;12.2;;;;;;;9.7;78.8;99860;;;;
2023/01/03 12:21:29;;;;;;;16.8;12.5;;;;;;;9.7;78.7;99850;;;;
2023/01/03 12:31:29;;;;;;;16.8;12.5;;;;;;;9.8;77.8;99840;;;;
2023/01/03 12:42:29;;;;;;;16.8;12.5;;;;;;;10.1;77.3;99840;;;;
2023/01/03 12:52:29;;;;;;;15.5;11.1;;;;;;;9.8;76.9;99830;;;;
2023/01/03 13:03:29;;;;;;;15.5;11.1;;;;;;;9.6;77.6;99830;;;;
2023/01/03 13:13:29;;;;;;;15.5;11.1;;;;;;;9.7;77.7;99830;;;;
2023/01/03 13:23:29;;;;;;;12.2;8.5;;;;;;;9.8;76.8;99830;;;;
2023/01/03 13:34:30;;;;;;;12.2;8.5;;;;;;;9.7;77.1;99830;;;;
2023/01/03 13:45:29;;;;;;;12.2;8.5;;;;;;;9.6;77.1;99830;;;;
2023/01/03 13:55:29;;;;;;;12.7;8.8;;;;;;;9.5;77.4;99830;;;;
2023/01/03 14:05:29;;;;;;;12.7;8.8;;;;;;;9.4;77.9;99830;;;;
2023/01/03 14:16:29;;;;;;;16.1;10.2;;;;;;;9.2;78.4;99840;;;;
2023/01/03 14:26:29;;;;;;;16.1;10.2;;;;;;;9.1;78.7;99860;;;;
2023/01/03 14:36:29;;;;;;;16.1;10.2;;;;;;;8.9;79.1;99860;;;;
2023/01/03 14:46:29;;;;;;;15.9;12.1;;;;;;;8.8;79.6;99870;;;;
2023/01/03 14:57:29;;;;;;;15.9;12.1;;;;;;;8.6;80.3;99870;;;;
2023/01/03 15:07:29;;;;;;;15.9;12.1;;;;;;;8.6;80.5;99870;;;;
2023/01/03 15:18:29;;;;;;;21.3;15.9;;;;;;;8.6;80.9;99880;;;;
2023/01/03 15:28:29;;;;;;;21.3;15.9;;;;;;;8.5;81.3;99890;;;;
2023/01/03 15:38:30;;;;;;;21.3;15.9;;;;;;;8.5;81.6;99900;;;;
2023/01/03 15:48:30;;;;;;;21.3;16.6;;;;;;;8.3;82;99910;;;;
2023/01/03 15:59:29;;;;;;;21.3;16.6;;;;;;;8.2;82.2;99930;;;;
2023/01/03 16:09:29;;;;;;;21.3;16.6;;;;;;;8.1;82.7;99940;;;;
2023/01/03 16:20:29;;;;;;;28.9;22.8;;;;;;;8;83.2;99950;;;;
2023/01/03 16:30:29;;;;;;;28.9;22.8;;;;;;;7.9;83.4;99960;;;;
2023/01/03 16:40:29;;;;;;;28.9;22.8;;;;;;;7.7;83.2;99980;;;;
2023/01/03 16:50:29;;;;;;;30.6;23.1;;;;;;;7.6;83.1;99980;;;;
2023/01/03 17:01:29;;;;;;;30.6;23.1;;;;;;;7.6;82.8;99990;;;;
2023/01/03 17:12:29;;;;;;;30.6;23.1;;;;;;;7.4;82.7;99990;;;;
2023/01/03 17:22:29;;;;;;;28.1;23.3;;;;;;;7.2;82.4;99990;;;;
2023/01/03 17:33:29;;;;;;;28.1;23.3;;;;;;;6.9;82.8;100000;;;;
2023/01/03 17:44:29;;;;;;;28.1;23.3;;;;;;;6.8;83.6;100000;;;;
2023/01/03 17:55:29;;;;;;;35.2;28.1;;;;;;;6.8;84.2;100010;;;;
2023/01/03 18:05:29;;;;;;;35.2;28.1;;;;;;;6.7;84.1;100010;;;;
2023/01/03 18:15:30;;;;;;;35.2;28.1;;;;;;;6.6;84.1;100010;;;;
2023/01/03 18:26:29;;;;;;;36.2;29.1;;;;;;;6.4;84.2;100010;;;;
2023/01/03 18:37:30;;;;;;;36.2;29.1;;;;;;;6.3;84.1;100020;;;;
2023/01/03 18:47:29;;;;;;;29.3;23.8;;;;;;;6.2;84.2;100020;;;;
2023/01/03 18:58:30;;;;;;;29.3;23.8;;;;;;;6.3;84.2;100020;;;;
2023/01/03 19:09:30;;;;;;;29.3;23.8;;;;;;;6.3;84.1;100020;;;;
2023/01/03 19:20:30;;;;;;;31;22.5;;;;;;;6.3;83.9;100020;;;;
2023/01/03 19:31:29;;;;;;;31;22.5;;;;;;;6.3;83.8;100040;;;;
2023/01/03 19:43:01;;;;;;;31;22.5;;;;;;;6.2;83.9;100040;;;;
2023/01/03 19:52:30;;;;;;;36.1;27.3;;;;;;;6.2;84;100040;;;;
2023/01/03 20:02:29;;;;;;;36.1;27.3;;;;;;;6.3;84;100040;;;;
2023/01/03 20:13:29;;;;;;;36.1;27.3;;;;;;;6.3;84.1;100040;;;;
2023/01/03 20:23:29;;;;;;;40;29.8;;;;;;;6.3;84.1;100040;;;;
2023/01/03 20:33:29;;;;;;;40;29.8;;;;;;;6.4;84.2;100050;;;;
2023/01/03 20:44:30;;;;;;;40;29.8;;;;;;;6.4;83.9;100060;;;;
2023/01/03 20:55:30;;;;;;;51.5;38.4;;;;;;;6.3;84.3;100060;;;;
2023/01/03 21:05:29;;;;;;;51.5;38.4;;;;;;;6.3;84.1;100060;;;;
2023/01/03 21:15:30;;;;;;;51.5;40.7;;;;;;;6.3;83.8;100070;;;;
2023/01/03 21:26:30;;;;;;;57.3;40.7;;;;;;;6.2;83.4;100070;;;;
2023/01/03 21:36:30;;;;;;;57.3;40.7;;;;;;;6.1;83.3;100070;;;;
2023/01/03 21:47:30;;;;;;;46.5;33.2;;;;;;;6;83.2;100070;;;;
2023/01/03 21:58:30;;;;;;;46.5;33.2;;;;;;;6;83;100090;;;;
2023/01/03 22:08:30;;;;;;;46.5;33.2;;;;;;;6;83;100090;;;;
2023/01/03 22:18:30;;;;;;;42;30.7;;;;;;;6;83;100100;;;;
2023/01/03 22:29:30;;;;;;;42;30.7;;;;;;;6;82.8;100100;;;;
2023/01/03 22:39:29;;;;;;;42;30.7;;;;;;;5.9;82.8;100100;;;;
2023/01/03 22:49:30;;;;;;;39.6;29.6;;;;;;;5.9;82.7;100100;;;;
2023/01/03 23:00:30;;;;;;;39.6;29.6;;;;;;;5.8;82.6;100110;;;;
2023/01/03 23:10:30;;;;;;;39.6;29.6;;;;;;;5.7;82.6;100100;;;;
2023/01/03 23:21:30;;;;;;;35.4;27.9;;;;;;;5.3;82.3;100090;;;;
2023/01/03 23:32:30;;;;;;;35.4;27.9;;;;;;;5;82.4;100090;;;;
2023/01/03 23:42:30;;;;;;;35.4;27.9;;;;;;;4.9;82.8;100080;;;;
2023/01/03 23:53:30;;;;;;;38.3;25.7;;;;;;;4.7;83.2;100090;;;;
